createdAt,value
2019-05-09T00:02:40.591Z,8.40
2019-05-09T00:05:09.595Z,8.95
2019-05-09T00:07:38.570Z,8.60
2019-05-09T00:10:07.871Z,9.70
2019-05-09T00:12:37.496Z,9.50
2019-05-09T00:15:08.762Z,9.15
2019-05-09T00:17:38.352Z,8.50
2019-05-09T00:20:17.227Z,9.25
2019-05-09T00:22:47.021Z,10.05
2019-05-09T00:25:16.710Z,9.70
2019-05-09T00:27:46.352Z,9.40
2019-05-09T00:30:17.561Z,8.60
2019-05-09T00:32:47.251Z,8.40
2019-05-09T00:35:33.863Z,9.40
2019-05-09T00:38:05.141Z,8.23
2019-05-09T00:40:34.855Z,8.80
2019-05-09T00:43:04.557Z,8.30
2019-05-09T00:45:59.199Z,8.75
2019-05-09T00:48:35.657Z,7.78
2019-05-09T00:51:05.384Z,9.13
2019-05-09T00:53:35.027Z,8.98
2019-05-09T00:56:04.668Z,9.43
2019-05-09T00:58:34.308Z,9.35
2019-05-09T01:01:04.508Z,8.18
2019-05-09T01:03:34.535Z,8.95
2019-05-09T01:06:04.542Z,8.63
2019-05-09T01:08:34.365Z,8.18
2019-05-09T01:11:11.385Z,8.40
2019-05-09T01:13:35.317Z,8.68
2019-05-09T01:16:05.043Z,8.18
2019-05-09T01:18:35.127Z,8.65
2019-05-09T01:21:04.784Z,8.68
2019-05-09T01:23:34.600Z,7.92
2019-05-09T01:26:04.508Z,8.98
2019-05-09T01:28:34.178Z,9.40
2019-05-09T01:31:04.288Z,8.53
2019-05-09T01:33:53.473Z,8.73
2019-05-09T01:36:23.560Z,9.85
2019-05-09T01:38:53.956Z,10.48
2019-05-09T01:41:30.486Z,9.00
2019-05-09T01:43:55.223Z,8.75
2019-05-09T01:46:24.827Z,9.65
2019-05-09T01:48:54.492Z,9.45
2019-05-09T01:51:23.565Z,9.70
2019-05-09T01:53:54.103Z,8.83
2019-05-09T01:56:23.634Z,9.70
2019-05-09T01:58:53.819Z,9.60
2019-05-09T02:01:24.156Z,8.78
2019-05-09T02:03:53.662Z,9.08
2019-05-09T02:06:24.430Z,9.15
2019-05-09T02:08:54.488Z,10.58
2019-05-09T02:11:25.340Z,10.00
2019-05-09T02:13:54.691Z,9.88
2019-05-09T02:16:43.231Z,10.03
2019-05-09T02:19:16.175Z,9.53
2019-05-09T02:21:45.158Z,11.68
2019-05-09T02:24:14.312Z,10.58
2019-05-09T02:26:43.912Z,10.88
2019-05-09T02:29:13.853Z,9.60
2019-05-09T02:31:44.547Z,9.70
2019-05-09T02:34:15.190Z,10.00
2019-05-09T02:36:44.973Z,10.53
2019-05-09T02:39:14.655Z,9.68
2019-05-09T02:41:59.514Z,10.20
2019-05-09T02:44:15.595Z,10.65
2019-05-09T02:47:09.273Z,10.58
2019-05-09T02:49:39.304Z,11.68
2019-05-09T02:52:09.134Z,11.53
2019-05-09T02:54:39.378Z,11.45
2019-05-09T02:57:09.617Z,11.40
2019-05-09T03:00:14.516Z,11.60
2019-05-09T03:03:04.032Z,11.35
2019-05-09T03:05:40.157Z,12.30
2019-05-09T03:08:12.555Z,11.63
2019-05-09T03:10:42.207Z,12.75
2019-05-09T03:13:11.806Z,11.88
2019-05-09T03:15:41.868Z,12.90
2019-05-09T03:18:11.482Z,13.15
2019-05-09T03:20:58.578Z,13.53
2019-05-09T03:23:28.698Z,11.90
2019-05-09T03:25:59.136Z,13.15
2019-05-09T03:28:39.021Z,12.55
2019-05-09T03:31:09.912Z,13.62
2019-05-09T03:33:40.820Z,15.25
2019-05-09T03:36:10.868Z,13.32
2019-05-09T03:38:40.572Z,13.90
2019-05-09T03:41:10.257Z,13.48
2019-05-09T03:43:39.871Z,14.18
2019-05-09T03:46:38.372Z,14.13
2019-05-09T03:49:08.739Z,14.85
2019-05-09T03:51:38.428Z,14.45
2019-05-09T03:54:08.226Z,14.58
2019-05-09T03:56:41.807Z,15.13
2019-05-09T03:59:11.416Z,16.07
2019-05-09T04:01:41.192Z,15.18
2019-05-09T04:04:10.860Z,15.38
2019-05-09T04:06:40.631Z,18.25
2019-05-09T04:09:10.246Z,15.78
2019-05-09T04:11:39.984Z,15.95
2019-05-09T04:14:13.380Z,15.80
2019-05-09T04:16:43.085Z,14.53
2019-05-09T04:19:12.720Z,15.83
2019-05-09T04:21:42.370Z,15.25
2019-05-09T04:24:12.053Z,15.18
2019-05-09T04:27:05.028Z,18.12
2019-05-09T04:29:34.648Z,15.85
2019-05-09T04:32:04.395Z,14.70
2019-05-09T04:34:34.076Z,15.75
2019-05-09T04:37:03.736Z,16.27
2019-05-09T04:39:33.416Z,17.73
2019-05-09T04:42:05.494Z,15.58
2019-05-09T04:44:57.432Z,16.17
2019-05-09T04:47:33.784Z,16.62
2019-05-09T04:50:00.980Z,15.43
2019-05-09T04:52:30.663Z,15.75
2019-05-09T04:55:00.509Z,16.70
2019-05-09T04:57:30.176Z,17.77
2019-05-09T04:59:59.795Z,18.80
2019-05-09T05:02:37.902Z,17.10
2019-05-09T05:05:07.900Z,17.23
2019-05-09T05:07:37.771Z,17.75
2019-05-09T05:10:08.941Z,18.27
2019-05-09T05:12:39.077Z,18.40
2019-05-09T05:15:09.117Z,17.85
2019-05-09T05:17:38.779Z,17.57
2019-05-09T05:20:11.896Z,17.55
2019-05-09T05:22:58.132Z,17.17
2019-05-09T05:25:27.988Z,19.32
2019-05-09T05:27:58.167Z,18.75
2019-05-09T05:30:28.478Z,17.82
2019-05-09T05:33:08.567Z,18.62
2019-05-09T05:35:44.032Z,18.45
2019-05-09T05:38:13.738Z,19.77
2019-05-09T05:40:46.426Z,21.07
2019-05-09T05:43:14.702Z,18.95
2019-05-09T05:46:01.767Z,20.72
2019-05-09T05:48:32.730Z,19.80
2019-05-09T05:51:02.334Z,18.25
2019-05-09T05:53:32.067Z,18.15
2019-05-09T05:56:01.809Z,19.75
2019-05-09T05:58:31.481Z,19.92
2019-05-09T06:01:04.150Z,19.07
2019-05-09T06:03:32.528Z,20.12
2019-05-09T06:06:02.264Z,21.52
2019-05-09T06:08:31.912Z,18.42
2019-05-09T06:11:01.520Z,20.05
2019-05-09T06:13:31.219Z,19.52
2019-05-09T06:16:00.867Z,19.23
2019-05-09T06:18:30.559Z,21.10
2019-05-09T06:21:00.165Z,22.95
2019-05-09T06:23:29.847Z,22.65
2019-05-09T06:25:59.619Z,23.62
2019-05-09T06:28:29.268Z,26.15
2019-05-09T06:30:58.975Z,24.87
2019-05-09T06:33:29.836Z,23.12
2019-05-09T06:35:59.475Z,20.92
2019-05-09T06:38:29.155Z,18.32
2019-05-09T06:40:58.777Z,23.42
2019-05-09T06:43:31.230Z,26.42
2019-05-09T06:46:18.267Z,24.18
2019-05-09T06:48:47.976Z,23.05
2019-05-09T06:51:20.657Z,25.75
2019-05-09T06:53:49.044Z,24.60
2019-05-09T06:56:18.754Z,24.60
2019-05-09T06:58:48.401Z,22.93
2019-05-09T07:01:25.328Z,22.40
2019-05-09T07:03:59.199Z,26.40
2019-05-09T07:06:38.516Z,25.25
2019-05-09T07:09:28.029Z,26.07
2019-05-09T07:11:58.629Z,25.52
2019-05-09T07:14:32.979Z,25.65
2019-05-09T07:17:00.926Z,26.55
2019-05-09T07:19:30.632Z,25.55
2019-05-09T07:22:22.210Z,23.65
2019-05-09T07:25:11.064Z,27.22
2019-05-09T07:27:40.895Z,26.62
2019-05-09T07:30:34.567Z,24.98
2019-05-09T07:33:27.832Z,24.55
2019-05-09T07:35:58.072Z,23.55
2019-05-09T07:38:32.019Z,28.27
2019-05-09T07:41:02.047Z,28.35
2019-05-09T07:43:31.675Z,25.97
2019-05-09T07:46:05.229Z,31.55
2019-05-09T07:48:34.956Z,28.62
2019-05-09T07:51:04.661Z,29.35
2019-05-09T07:53:34.300Z,29.72
2019-05-09T07:56:03.959Z,29.82
2019-05-09T07:58:33.588Z,27.62
2019-05-09T08:01:03.228Z,26.77
2019-05-09T08:03:32.959Z,29.57
2019-05-09T08:06:02.597Z,29.00
2019-05-09T08:08:32.239Z,26.45
2019-05-09T08:11:01.913Z,26.35
2019-05-09T08:13:31.521Z,28.57
2019-05-09T08:16:01.175Z,28.55
2019-05-09T08:18:30.826Z,27.80
2019-05-09T08:21:00.486Z,30.05
2019-05-09T08:23:30.148Z,29.55
2019-05-09T08:26:03.916Z,27.37
2019-05-09T08:28:31.165Z,30.50
2019-05-09T08:31:00.816Z,29.35
2019-05-09T08:33:30.493Z,31.07
2019-05-09T08:36:00.156Z,27.55
2019-05-09T08:38:29.810Z,29.18
2019-05-09T08:41:13.738Z,27.62
2019-05-09T08:43:43.761Z,29.95
2019-05-09T08:46:14.456Z,25.40
2019-05-09T08:48:44.732Z,27.30
2019-05-09T08:51:18.661Z,30.45
2019-05-09T08:53:48.354Z,28.00
2019-05-09T08:56:18.113Z,28.52
2019-05-09T08:58:48.498Z,28.00
2019-05-09T09:01:30.879Z,31.90
2019-05-09T09:03:48.554Z,26.60
2019-05-09T09:06:18.396Z,28.77
2019-05-09T09:08:48.320Z,24.55
2019-05-09T09:11:18.754Z,26.45
2019-05-09T09:13:48.355Z,28.20
2019-05-09T09:16:21.622Z,19.82
2019-05-09T09:18:48.839Z,25.65
2019-05-09T09:21:18.545Z,26.62
2019-05-09T09:23:50.808Z,24.82
2019-05-09T09:26:20.675Z,27.05
2019-05-09T09:28:50.339Z,25.50
2019-05-09T09:31:20.017Z,27.70
2019-05-09T09:33:49.663Z,28.25
2019-05-09T09:36:19.383Z,26.55
2019-05-09T09:38:49.079Z,27.02
2019-05-09T09:41:18.752Z,28.57
2019-05-09T09:43:48.409Z,30.17
2019-05-09T09:46:18.409Z,24.10
2019-05-09T09:48:48.299Z,25.37
2019-05-09T09:51:18.760Z,26.37
2019-05-09T09:53:49.050Z,26.75
2019-05-09T09:56:22.435Z,21.95
2019-05-09T09:58:58.598Z,20.77
2019-05-09T10:01:30.244Z,21.45
2019-05-09T10:04:19.455Z,24.27
2019-05-09T10:06:44.804Z,22.10
2019-05-09T10:09:14.431Z,21.25
2019-05-09T10:11:44.121Z,19.92
2019-05-09T10:14:18.640Z,20.70
2019-05-09T10:17:10.111Z,22.32
2019-05-09T10:19:56.943Z,23.90
2019-05-09T10:22:27.072Z,22.15
2019-05-09T10:24:58.575Z,22.80
2019-05-09T10:27:28.567Z,18.55
2019-05-09T10:29:58.251Z,21.45
2019-05-09T10:32:28.854Z,19.12
2019-05-09T10:35:00.499Z,21.73
2019-05-09T10:37:30.252Z,16.27
2019-05-09T10:39:59.887Z,16.77
2019-05-09T10:42:44.687Z,16.23
2019-05-09T10:45:40.722Z,17.32
2019-05-09T10:48:10.866Z,16.50
2019-05-09T10:50:44.536Z,19.10
2019-05-09T10:53:11.804Z,16.95
2019-05-09T10:55:41.467Z,15.10
2019-05-09T10:58:11.120Z,16.70
2019-05-09T11:00:40.768Z,17.32
2019-05-09T11:03:10.578Z,15.20
2019-05-09T11:05:40.356Z,15.75
2019-05-09T11:08:10.028Z,16.60
2019-05-09T11:10:40.002Z,14.13
2019-05-09T11:13:09.779Z,13.48
2019-05-09T11:15:39.461Z,13.40
2019-05-09T11:18:09.170Z,13.55
2019-05-09T11:20:38.810Z,15.28
2019-05-09T11:23:08.444Z,13.75
2019-05-09T11:25:38.262Z,13.58
2019-05-09T11:28:12.648Z,11.35
2019-05-09T11:30:39.547Z,12.95
2019-05-09T11:33:09.244Z,12.23
2019-05-09T11:35:38.920Z,14.15
2019-05-09T11:38:08.624Z,11.75
2019-05-09T11:40:38.355Z,12.75
2019-05-09T11:43:07.961Z,12.73
2019-05-09T11:45:38.829Z,10.75
2019-05-09T11:48:08.586Z,12.18
2019-05-09T11:50:38.842Z,12.15
2019-05-09T11:53:08.929Z,10.68
2019-05-09T11:55:43.191Z,10.43
2019-05-09T11:58:10.209Z,10.00
2019-05-09T12:00:42.627Z,10.80
2019-05-09T12:03:12.332Z,11.55
2019-05-09T12:05:42.065Z,12.23
2019-05-09T12:08:11.701Z,12.35
2019-05-09T12:10:41.425Z,18.55
2019-05-09T12:13:11.069Z,9.70
2019-05-09T12:15:40.778Z,11.25
2019-05-09T12:18:11.602Z,12.60
2019-05-09T12:20:41.804Z,8.58
2019-05-09T12:23:11.429Z,9.13
2019-05-09T12:25:41.080Z,10.55
2019-05-09T12:28:10.864Z,8.85
2019-05-09T12:30:40.587Z,10.48
2019-05-09T12:33:10.335Z,9.75
2019-05-09T12:35:39.999Z,10.90
2019-05-09T12:38:09.608Z,11.60
2019-05-09T12:40:39.246Z,12.20
2019-05-09T12:43:09.205Z,12.20
2019-05-09T12:45:39.068Z,10.95
2019-05-09T12:48:15.071Z,9.73
2019-05-09T12:50:40.024Z,10.78
2019-05-09T12:53:09.628Z,10.40
2019-05-09T12:55:39.293Z,10.10
2019-05-09T12:58:27.794Z,10.15
2019-05-09T13:00:58.740Z,10.50
2019-05-09T13:03:29.718Z,9.83
2019-05-09T13:05:59.717Z,8.80
2019-05-09T13:08:29.335Z,10.08
2019-05-09T13:11:02.334Z,9.53
2019-05-09T13:13:32.217Z,9.83
2019-05-09T13:16:23.640Z,10.65
2019-05-09T13:19:10.906Z,10.82
2019-05-09T13:21:40.560Z,10.00
2019-05-09T13:24:10.267Z,9.53
2019-05-09T13:26:40.150Z,8.33
2019-05-09T13:29:09.875Z,8.40
2019-05-09T13:31:39.839Z,9.45
2019-05-09T13:34:09.692Z,9.88
2019-05-09T13:36:39.326Z,8.40
2019-05-09T13:39:10.811Z,8.53
2019-05-09T13:41:41.006Z,10.05
2019-05-09T13:44:13.568Z,9.63
2019-05-09T13:46:42.011Z,9.13
2019-05-09T13:49:15.353Z,8.05
2019-05-09T13:51:50.969Z,7.80
2019-05-09T13:54:14.297Z,7.97
2019-05-09T13:56:43.965Z,6.85
2019-05-09T13:59:13.560Z,6.95
2019-05-09T14:01:43.270Z,6.15
2019-05-09T14:04:15.168Z,6.15
2019-05-09T14:06:44.868Z,8.30
2019-05-09T14:09:14.692Z,6.90
2019-05-09T14:11:44.412Z,8.18
2019-05-09T14:14:14.030Z,7.00
2019-05-09T14:16:43.747Z,7.83
2019-05-09T14:19:40.650Z,8.50
2019-05-09T14:21:48.179Z,7.67
2019-05-09T14:24:19.259Z,7.78
2019-05-09T14:26:53.225Z,9.20
2019-05-09T14:29:22.913Z,9.20
2019-05-09T14:31:52.630Z,8.23
2019-05-09T14:34:24.856Z,8.05
2019-05-09T14:36:54.558Z,8.63
2019-05-09T14:39:24.460Z,8.13
2019-05-09T14:41:54.124Z,7.65
2019-05-09T14:44:23.753Z,8.28
2019-05-09T14:46:58.217Z,9.13
2019-05-09T14:49:39.657Z,9.90
2019-05-09T14:51:58.759Z,9.28
2019-05-09T14:54:29.063Z,10.50
2019-05-09T14:56:58.973Z,9.98
2019-05-09T14:59:28.912Z,9.88
2019-05-09T15:01:59.282Z,9.75
2019-05-09T15:04:29.098Z,10.35
2019-05-09T15:06:59.928Z,10.45
2019-05-09T15:09:29.637Z,9.93
2019-05-09T15:11:59.363Z,10.38
2019-05-09T15:14:29.069Z,10.28
2019-05-09T15:17:04.314Z,10.58
2019-05-09T15:19:33.985Z,10.50
2019-05-09T15:22:03.633Z,10.48
2019-05-09T15:24:33.374Z,11.10
2019-05-09T15:27:03.026Z,13.68
2019-05-09T15:29:32.837Z,13.30
2019-05-09T15:32:06.012Z,13.48
2019-05-09T15:34:34.106Z,13.93
2019-05-09T15:37:08.696Z,18.90
2019-05-09T15:39:38.145Z,18.87
2019-05-09T15:42:08.008Z,21.75
2019-05-09T15:44:37.658Z,26.77
2019-05-09T15:47:13.900Z,33.70
2019-05-09T15:49:43.690Z,39.08
2019-05-09T15:52:13.408Z,35.10
2019-05-09T15:54:43.086Z,37.58
2019-05-09T15:57:13.843Z,33.28
2019-05-09T15:59:43.583Z,33.67
2019-05-09T16:02:19.101Z,24.80
2019-05-09T16:04:48.172Z,23.52
2019-05-09T16:07:17.963Z,29.30
2019-05-09T16:09:48.339Z,26.37
2019-05-09T16:12:18.584Z,25.00
2019-05-09T16:14:48.756Z,24.72
2019-05-09T16:17:19.260Z,19.62
2019-05-09T16:19:49.217Z,25.27
2019-05-09T16:22:19.135Z,22.02
2019-05-09T16:24:48.983Z,21.70
2019-05-09T16:27:18.627Z,17.20
2019-05-09T16:29:48.692Z,16.10
2019-05-09T16:32:21.510Z,17.85
2019-05-09T16:34:51.183Z,15.45
2019-05-09T16:37:20.935Z,17.80
2019-05-09T16:39:50.774Z,15.43
2019-05-09T16:42:20.392Z,14.47
2019-05-09T16:44:50.051Z,11.95
2019-05-09T16:47:21.663Z,11.35
2019-05-09T16:49:51.017Z,9.60
2019-05-09T16:52:20.680Z,10.45
2019-05-09T16:54:52.523Z,11.53
2019-05-09T16:57:22.141Z,12.37
2019-05-09T16:59:54.549Z,14.83
2019-05-09T17:02:28.700Z,14.95
2019-05-09T17:04:58.690Z,16.05
2019-05-09T17:07:28.389Z,17.12
2019-05-09T17:09:58.216Z,17.95
2019-05-09T17:12:27.820Z,16.48
2019-05-09T17:14:59.645Z,18.12
2019-05-09T17:17:29.029Z,16.70
2019-05-09T17:19:58.716Z,19.80
2019-05-09T17:22:47.425Z,18.60
2019-05-09T17:25:18.683Z,19.23
2019-05-09T17:27:48.472Z,18.48
2019-05-09T17:30:18.789Z,20.25
2019-05-09T17:32:48.765Z,20.25
2019-05-09T17:35:18.603Z,19.57
2019-05-09T17:37:48.363Z,21.95
2019-05-09T17:40:19.279Z,21.27
2019-05-09T17:42:49.028Z,21.95
2019-05-09T17:45:20.217Z,24.12
2019-05-09T17:47:49.861Z,24.02
2019-05-09T17:50:20.068Z,25.40
2019-05-09T17:52:49.732Z,26.45
2019-05-09T17:55:19.440Z,28.38
2019-05-09T17:57:50.375Z,25.77
2019-05-09T18:00:22.073Z,25.72
2019-05-09T18:02:53.346Z,28.27
2019-05-09T18:05:23.375Z,28.10
2019-05-09T18:07:54.823Z,30.65
2019-05-09T18:10:24.621Z,29.02
2019-05-09T18:12:54.271Z,31.55
2019-05-09T18:15:25.126Z,30.52
2019-05-09T18:17:54.899Z,28.60
2019-05-09T18:20:24.555Z,29.45
2019-05-09T18:22:54.173Z,28.60
2019-05-09T18:25:25.446Z,30.70
2019-05-09T18:27:57.356Z,32.25
2019-05-09T18:30:27.977Z,33.38
2019-05-09T18:33:03.791Z,32.83
2019-05-09T18:35:33.697Z,31.48
2019-05-09T18:38:03.544Z,29.15
2019-05-09T18:40:33.204Z,29.35
2019-05-09T18:43:02.862Z,28.32
2019-05-09T18:45:32.535Z,27.75
2019-05-09T18:48:02.179Z,28.30
2019-05-09T18:50:31.840Z,28.25
2019-05-09T18:53:01.471Z,30.15
2019-05-09T18:55:31.470Z,27.60
2019-05-09T18:58:01.111Z,29.52
2019-05-09T19:00:30.863Z,31.70
2019-05-09T19:03:00.713Z,30.08
2019-05-09T19:05:30.384Z,28.23
2019-05-09T19:08:00.006Z,27.25
2019-05-09T19:10:29.776Z,27.52
2019-05-09T19:12:59.380Z,26.97
2019-05-09T19:15:58.255Z,26.77
2019-05-09T19:18:43.717Z,26.82
2019-05-09T19:21:26.027Z,26.45
2019-05-09T19:23:55.652Z,23.67
2019-05-09T19:26:37.506Z,23.73
2019-05-09T19:29:08.796Z,24.12
2019-05-09T19:31:38.928Z,21.27
2019-05-09T19:34:08.656Z,24.05
2019-05-09T19:36:38.682Z,22.15
2019-05-09T19:39:10.279Z,21.95
2019-05-09T19:41:40.412Z,23.45
2019-05-09T19:44:10.080Z,22.93
2019-05-09T19:46:39.744Z,24.70
2019-05-09T19:49:09.456Z,26.25
2019-05-09T19:51:39.125Z,27.15
2019-05-09T19:54:08.781Z,27.90
2019-05-09T19:56:38.476Z,30.90
2019-05-09T19:59:08.630Z,29.85
2019-05-09T20:01:38.485Z,31.70
2019-05-09T20:04:08.591Z,33.05
2019-05-09T20:06:38.246Z,38.30
2019-05-09T20:09:12.846Z,36.25
2019-05-09T20:11:55.551Z,35.45
2019-05-09T20:14:28.838Z,37.05
2019-05-09T20:16:58.517Z,40.25
2019-05-09T20:19:28.195Z,35.10
2019-05-09T20:21:57.970Z,37.40
2019-05-09T20:24:27.590Z,36.83
2019-05-09T20:26:57.263Z,38.15
2019-05-09T20:29:30.086Z,38.80
2019-05-09T20:31:58.257Z,41.20
2019-05-09T20:34:28.024Z,44.93
2019-05-09T20:36:57.716Z,43.73
2019-05-09T20:39:30.753Z,42.80
2019-05-09T20:42:01.593Z,44.40
2019-05-09T20:44:31.469Z,41.50
2019-05-09T20:47:01.493Z,44.15
2019-05-09T20:49:35.995Z,41.20
2019-05-09T20:52:05.954Z,42.17
2019-05-09T20:54:35.787Z,42.78
2019-05-09T20:57:05.645Z,45.00
2019-05-09T20:59:35.452Z,44.35
2019-05-09T21:02:05.292Z,42.85
2019-05-09T21:04:35.079Z,46.37
2019-05-09T21:07:05.426Z,47.20
2019-05-09T21:09:35.329Z,42.70
2019-05-09T21:12:05.192Z,47.85
2019-05-09T21:14:35.064Z,38.00
2019-05-09T21:17:04.982Z,49.65
2019-05-09T21:19:36.171Z,49.93
2019-05-09T21:22:06.127Z,51.40
2019-05-09T21:24:36.133Z,57.08
2019-05-09T21:27:05.972Z,60.23
2019-05-09T21:29:35.868Z,61.85
2019-05-09T21:32:05.788Z,62.80
2019-05-09T21:34:35.836Z,59.65
2019-05-09T21:37:05.514Z,64.25
2019-05-09T21:39:35.423Z,61.05
2019-05-09T21:42:06.289Z,63.95
2019-05-09T21:44:36.451Z,66.57
2019-05-09T21:47:06.056Z,78.42
2019-05-09T21:49:36.899Z,68.55
2019-05-09T21:52:06.768Z,66.90
2019-05-09T21:54:36.444Z,66.28
2019-05-09T21:57:06.207Z,67.05
2019-05-09T21:59:35.870Z,69.97
2019-05-09T22:02:05.752Z,67.17
2019-05-09T22:04:35.529Z,71.75
2019-05-09T22:07:05.249Z,67.45
2019-05-09T22:09:34.946Z,67.25
2019-05-09T22:12:08.695Z,67.35
2019-05-09T22:14:38.872Z,67.32
2019-05-09T22:17:15.620Z,64.25
2019-05-09T22:19:46.020Z,68.28
2019-05-09T22:22:15.699Z,68.05
2019-05-09T22:24:45.895Z,64.27
2019-05-09T22:27:15.516Z,65.47
2019-05-09T22:29:45.686Z,66.85
2019-05-09T22:32:15.539Z,69.70
2019-05-09T22:34:45.278Z,70.10
2019-05-09T22:37:14.909Z,69.58
2019-05-09T22:39:44.569Z,71.40
2019-05-09T22:42:14.229Z,73.15
2019-05-09T22:44:43.931Z,70.12
2019-05-09T22:47:13.543Z,68.62
2019-05-09T22:49:43.189Z,68.12
2019-05-09T22:52:13.007Z,71.40
2019-05-09T22:54:42.647Z,71.75
2019-05-09T22:57:14.773Z,74.35
2019-05-09T22:59:44.682Z,73.15
2019-05-09T23:02:16.183Z,76.47
2019-05-09T23:04:45.859Z,79.90
2019-05-09T23:07:15.500Z,76.25
2019-05-09T23:09:45.157Z,74.82
2019-05-09T23:12:14.884Z,73.52
2019-05-09T23:14:44.543Z,75.75
2019-05-09T23:17:14.128Z,73.85
2019-05-09T23:19:43.781Z,77.92
2019-05-09T23:22:13.743Z,75.40
2019-05-09T23:24:44.832Z,71.40
2019-05-09T23:27:16.888Z,72.32
2019-05-09T23:29:46.580Z,71.15
2019-05-09T23:32:38.235Z,75.03
2019-05-09T23:35:08.216Z,69.67
2019-05-09T23:37:37.827Z,69.55
2019-05-09T23:40:08.252Z,68.22
2019-05-09T23:42:37.892Z,69.17
2019-05-09T23:45:08.348Z,66.60
2019-05-09T23:47:38.053Z,65.62
2019-05-09T23:50:08.248Z,70.17
2019-05-09T23:52:37.898Z,66.47
2019-05-09T23:55:25.283Z,68.57
2019-05-09T23:58:12.483Z,67.42
